<?xml version="1.0" encoding="UTF-8" standalone="no" ?>
<gpx xmlns="http://www.topografix.com/GPX/1/1" xmlns:xsi="http://www.w3.org/2001/XMLSchema-instance" xsi:schemaLocation="http://www.topografix.com/GPX/1/1 http://www.topografix.com/GPX/1/1/gpx.xsd" version="1.1" creator="VisuGPX - https://www.visugpx.com">
  <metadata>
    <name>LAINVILLE FREMAINVILLE RUEIL</name>
    <desc><![CDATA[FAIT]]></desc>
  </metadata>
  <trk>
    <name><![CDATA[LAINVILLE FREMAINVILLE RUEIL-13894913]]></name>
    <trkseg>
      <trkpt lat="49.03452" lon="1.86488">
        <ele>38</ele>
        <time>2023-01-08T18:37:35Z</time>
      </trkpt>
      <trkpt lat="49.03467" lon="1.86455">
        <ele>39</ele>
        <time>2023-01-08T18:38:10Z</time>
      </trkpt>
      <trkpt lat="49.03475" lon="1.86444">
        <ele>39</ele>
        <time>2023-01-08T18:38:25Z</time>
      </trkpt>
      <trkpt lat="49.03478" lon="1.86445">
        <ele>39</ele>
        <time>2023-01-08T18:38:29Z</time>
      </trkpt>
      <trkpt lat="49.03483" lon="1.8645">
        <ele>39</ele>
        <time>2023-01-08T18:38:37Z</time>
      </trkpt>
      <trkpt lat="49.03484" lon="1.86459">
        <ele>39</ele>
        <time>2023-01-08T18:38:45Z</time>
      </trkpt>
      <trkpt lat="49.03484" lon="1.86508">
        <ele>38</ele>
        <time>2023-01-08T18:39:27Z</time>
      </trkpt>
      <trkpt lat="49.03502" lon="1.86557">
        <ele>39</ele>
        <time>2023-01-08T18:40:17Z</time>
      </trkpt>
      <trkpt lat="49.03536" lon="1.86619">
        <ele>40</ele>
        <time>2023-01-08T18:41:27Z</time>
      </trkpt>
      <trkpt lat="49.03544" lon="1.86667">
        <ele>40</ele>
        <time>2023-01-08T18:42:11Z</time>
      </trkpt>
      <trkpt lat="49.03581" lon="1.86717">
        <ele>40</ele>
        <time>2023-01-08T18:43:17Z</time>
      </trkpt>
      <trkpt lat="49.03613" lon="1.86738">
        <ele>41</ele>
        <time>2023-01-08T18:44:03Z</time>
      </trkpt>
      <trkpt lat="49.03655" lon="1.86744">
        <ele>43</ele>
        <time>2023-01-08T18:44:59Z</time>
      </trkpt>
      <trkpt lat="49.03707" lon="1.86787">
        <ele>44</ele>
        <time>2023-01-08T18:46:18Z</time>
      </trkpt>
      <trkpt lat="49.03702" lon="1.86882">
        <ele>46</ele>
        <time>2023-01-08T18:47:42Z</time>
      </trkpt>
      <trkpt lat="49.03718" lon="1.86908">
        <ele>48</ele>
        <time>2023-01-08T18:48:13Z</time>
      </trkpt>
      <trkpt lat="49.03722" lon="1.86963">
        <ele>53</ele>
        <time>2023-01-08T18:49:01Z</time>
      </trkpt>
      <trkpt lat="49.03732" lon="1.86995">
        <ele>56</ele>
        <time>2023-01-08T18:49:32Z</time>
      </trkpt>
      <trkpt lat="49.03738" lon="1.87008">
        <ele>58</ele>
        <time>2023-01-08T18:49:46Z</time>
      </trkpt>
      <trkpt lat="49.03741" lon="1.8701">
        <ele>58</ele>
        <time>2023-01-08T18:49:51Z</time>
      </trkpt>
      <trkpt lat="49.03736" lon="1.87">
        <ele>57</ele>
        <time>2023-01-08T18:50:02Z</time>
      </trkpt>
      <trkpt lat="49.03759" lon="1.87031">
        <ele>59</ele>
        <time>2023-01-08T18:50:43Z</time>
      </trkpt>
      <trkpt lat="49.03755" lon="1.87061">
        <ele>62</ele>
        <time>2023-01-08T18:51:09Z</time>
      </trkpt>
      <trkpt lat="49.03742" lon="1.87095">
        <ele>66</ele>
        <time>2023-01-08T18:51:44Z</time>
      </trkpt>
      <trkpt lat="49.03737" lon="1.87138">
        <ele>70</ele>
        <time>2023-01-08T18:52:22Z</time>
      </trkpt>
      <trkpt lat="49.03729" lon="1.87162">
        <ele>73</ele>
        <time>2023-01-08T18:52:46Z</time>
      </trkpt>
      <trkpt lat="49.0374" lon="1.87221">
        <ele>80</ele>
        <time>2023-01-08T18:53:39Z</time>
      </trkpt>
      <trkpt lat="49.03755" lon="1.87258">
        <ele>84</ele>
        <time>2023-01-08T18:54:17Z</time>
      </trkpt>
      <trkpt lat="49.03751" lon="1.87264">
        <ele>85</ele>
        <time>2023-01-08T18:54:25Z</time>
      </trkpt>
      <trkpt lat="49.03748" lon="1.87302">
        <ele>88</ele>
        <time>2023-01-08T18:54:58Z</time>
      </trkpt>
      <trkpt lat="49.03738" lon="1.87325">
        <ele>91</ele>
        <time>2023-01-08T18:55:22Z</time>
      </trkpt>
      <trkpt lat="49.03728" lon="1.8733">
        <ele>91</ele>
        <time>2023-01-08T18:55:36Z</time>
      </trkpt>
      <trkpt lat="49.03715" lon="1.87344">
        <ele>92</ele>
        <time>2023-01-08T18:55:58Z</time>
      </trkpt>
      <trkpt lat="49.03716" lon="1.8737">
        <ele>93</ele>
        <time>2023-01-08T18:56:20Z</time>
      </trkpt>
      <trkpt lat="49.03707" lon="1.87389">
        <ele>94</ele>
        <time>2023-01-08T18:56:41Z</time>
      </trkpt>
      <trkpt lat="49.03774" lon="1.87462">
        <ele>94</ele>
        <time>2023-01-08T18:58:31Z</time>
      </trkpt>
      <trkpt lat="49.03851" lon="1.87567">
        <ele>95</ele>
        <time>2023-01-08T19:00:49Z</time>
      </trkpt>
      <trkpt lat="49.03891" lon="1.87615">
        <ele>96</ele>
        <time>2023-01-08T19:01:57Z</time>
      </trkpt>
      <trkpt lat="49.04" lon="1.87708">
        <ele>97</ele>
        <time>2023-01-08T19:04:43Z</time>
      </trkpt>
      <trkpt lat="49.04106" lon="1.87782">
        <ele>95</ele>
        <time>2023-01-08T19:07:19Z</time>
      </trkpt>
      <trkpt lat="49.04221" lon="1.87793">
        <ele>90</ele>
        <time>2023-01-08T19:09:53Z</time>
      </trkpt>
      <trkpt lat="49.0426" lon="1.87791">
        <ele>87</ele>
        <time>2023-01-08T19:10:45Z</time>
      </trkpt>
      <trkpt lat="49.04303" lon="1.87794">
        <ele>84</ele>
        <time>2023-01-08T19:11:42Z</time>
      </trkpt>
      <trkpt lat="49.04313" lon="1.87798">
        <ele>83</ele>
        <time>2023-01-08T19:11:56Z</time>
      </trkpt>
      <trkpt lat="49.04327" lon="1.87795">
        <ele>82</ele>
        <time>2023-01-08T19:12:15Z</time>
      </trkpt>
      <trkpt lat="49.04361" lon="1.878">
        <ele>79</ele>
        <time>2023-01-08T19:13:00Z</time>
      </trkpt>
      <trkpt lat="49.04392" lon="1.87809">
        <ele>78</ele>
        <time>2023-01-08T19:13:42Z</time>
      </trkpt>
      <trkpt lat="49.0442" lon="1.87823">
        <ele>76</ele>
        <time>2023-01-08T19:14:22Z</time>
      </trkpt>
      <trkpt lat="49.04443" lon="1.87827">
        <ele>75</ele>
        <time>2023-01-08T19:14:53Z</time>
      </trkpt>
      <trkpt lat="49.04484" lon="1.87824">
        <ele>72</ele>
        <time>2023-01-08T19:15:47Z</time>
      </trkpt>
      <trkpt lat="49.04559" lon="1.87795">
        <ele>63</ele>
        <time>2023-01-08T19:17:31Z</time>
      </trkpt>
      <trkpt lat="49.04569" lon="1.87796">
        <ele>63</ele>
        <time>2023-01-08T19:17:44Z</time>
      </trkpt>
      <trkpt lat="49.04581" lon="1.87805">
        <ele>62</ele>
        <time>2023-01-08T19:18:02Z</time>
      </trkpt>
      <trkpt lat="49.04624" lon="1.8786">
        <ele>64</ele>
        <time>2023-01-08T19:19:17Z</time>
      </trkpt>
      <trkpt lat="49.04658" lon="1.87889">
        <ele>65</ele>
        <time>2023-01-08T19:20:09Z</time>
      </trkpt>
      <trkpt lat="49.04711" lon="1.87906">
        <ele>65</ele>
        <time>2023-01-08T19:21:21Z</time>
      </trkpt>
      <trkpt lat="49.04732" lon="1.8792">
        <ele>65</ele>
        <time>2023-01-08T19:21:52Z</time>
      </trkpt>
      <trkpt lat="49.04744" lon="1.87908">
        <ele>64</ele>
        <time>2023-01-08T19:22:11Z</time>
      </trkpt>
      <trkpt lat="49.04753" lon="1.87869">
        <ele>63</ele>
        <time>2023-01-08T19:22:47Z</time>
      </trkpt>
      <trkpt lat="49.04776" lon="1.87818">
        <ele>64</ele>
        <time>2023-01-08T19:23:41Z</time>
      </trkpt>
      <trkpt lat="49.04784" lon="1.87788">
        <ele>65</ele>
        <time>2023-01-08T19:24:09Z</time>
      </trkpt>
      <trkpt lat="49.04771" lon="1.87705">
        <ele>65</ele>
        <time>2023-01-08T19:25:24Z</time>
      </trkpt>
      <trkpt lat="49.04788" lon="1.87648">
        <ele>67</ele>
        <time>2023-01-08T19:26:19Z</time>
      </trkpt>
      <trkpt lat="49.04791" lon="1.87619">
        <ele>68</ele>
        <time>2023-01-08T19:26:44Z</time>
      </trkpt>
      <trkpt lat="49.04809" lon="1.87568">
        <ele>70</ele>
        <time>2023-01-08T19:27:35Z</time>
      </trkpt>
      <trkpt lat="49.04823" lon="1.87547">
        <ele>71</ele>
        <time>2023-01-08T19:28:01Z</time>
      </trkpt>
      <trkpt lat="49.04835" lon="1.87538">
        <ele>73</ele>
        <time>2023-01-08T19:28:19Z</time>
      </trkpt>
      <trkpt lat="49.0489" lon="1.87505">
        <ele>78</ele>
        <time>2023-01-08T19:29:38Z</time>
      </trkpt>
      <trkpt lat="49.04935" lon="1.87487">
        <ele>81</ele>
        <time>2023-01-08T19:30:40Z</time>
      </trkpt>
      <trkpt lat="49.05004" lon="1.87602">
        <ele>94</ele>
        <time>2023-01-08T19:32:56Z</time>
      </trkpt>
      <trkpt lat="49.05019" lon="1.87617">
        <ele>96</ele>
        <time>2023-01-08T19:33:20Z</time>
      </trkpt>
      <trkpt lat="49.05078" lon="1.877">
        <ele>101</ele>
        <time>2023-01-08T19:35:07Z</time>
      </trkpt>
      <trkpt lat="49.05119" lon="1.87751">
        <ele>102</ele>
        <time>2023-01-08T19:36:18Z</time>
      </trkpt>
      <trkpt lat="49.05127" lon="1.87756">
        <ele>102</ele>
        <time>2023-01-08T19:36:30Z</time>
      </trkpt>
      <trkpt lat="49.05139" lon="1.87729">
        <ele>102</ele>
        <time>2023-01-08T19:36:58Z</time>
      </trkpt>
      <trkpt lat="49.0514" lon="1.87706">
        <ele>101</ele>
        <time>2023-01-08T19:37:18Z</time>
      </trkpt>
      <trkpt lat="49.05153" lon="1.87684">
        <ele>101</ele>
        <time>2023-01-08T19:37:44Z</time>
      </trkpt>
      <trkpt lat="49.05152" lon="1.87669">
        <ele>101</ele>
        <time>2023-01-08T19:37:57Z</time>
      </trkpt>
      <trkpt lat="49.05159" lon="1.87673">
        <ele>101</ele>
        <time>2023-01-08T19:38:07Z</time>
      </trkpt>
      <trkpt lat="49.05162" lon="1.87668">
        <ele>101</ele>
        <time>2023-01-08T19:38:13Z</time>
      </trkpt>
      <trkpt lat="49.05177" lon="1.87632">
        <ele>101</ele>
        <time>2023-01-08T19:38:51Z</time>
      </trkpt>
      <trkpt lat="49.05236" lon="1.8754">
        <ele>101</ele>
        <time>2023-01-08T19:40:43Z</time>
      </trkpt>
      <trkpt lat="49.05249" lon="1.87505">
        <ele>101</ele>
        <time>2023-01-08T19:41:18Z</time>
      </trkpt>
      <trkpt lat="49.05269" lon="1.87467">
        <ele>100</ele>
        <time>2023-01-08T19:42:01Z</time>
      </trkpt>
      <trkpt lat="49.053" lon="1.87443">
        <ele>101</ele>
        <time>2023-01-08T19:42:47Z</time>
      </trkpt>
      <trkpt lat="49.05355" lon="1.87409">
        <ele>101</ele>
        <time>2023-01-08T19:44:07Z</time>
      </trkpt>
      <trkpt lat="49.05379" lon="1.87388">
        <ele>100</ele>
        <time>2023-01-08T19:44:43Z</time>
      </trkpt>
      <trkpt lat="49.05479" lon="1.87317">
        <ele>100</ele>
        <time>2023-01-08T19:47:11Z</time>
      </trkpt>
      <trkpt lat="49.05513" lon="1.87304">
        <ele>101</ele>
        <time>2023-01-08T19:47:57Z</time>
      </trkpt>
      <trkpt lat="49.0566" lon="1.87213">
        <ele>103</ele>
        <time>2023-01-08T19:51:29Z</time>
      </trkpt>
      <trkpt lat="49.05743" lon="1.87147">
        <ele>103</ele>
        <time>2023-01-08T19:53:34Z</time>
      </trkpt>
      <trkpt lat="49.05803" lon="1.87105">
        <ele>103</ele>
        <time>2023-01-08T19:55:02Z</time>
      </trkpt>
      <trkpt lat="49.05884" lon="1.87056">
        <ele>102</ele>
        <time>2023-01-08T19:56:58Z</time>
      </trkpt>
      <trkpt lat="49.0592" lon="1.87044">
        <ele>102</ele>
        <time>2023-01-08T19:57:48Z</time>
      </trkpt>
      <trkpt lat="49.05937" lon="1.87046">
        <ele>102</ele>
        <time>2023-01-08T19:58:10Z</time>
      </trkpt>
      <trkpt lat="49.06012" lon="1.87021">
        <ele>102</ele>
        <time>2023-01-08T19:59:53Z</time>
      </trkpt>
      <trkpt lat="49.06094" lon="1.86983">
        <ele>105</ele>
        <time>2023-01-08T20:01:47Z</time>
      </trkpt>
      <trkpt lat="49.06181" lon="1.86934">
        <ele>109</ele>
        <time>2023-01-08T20:03:51Z</time>
      </trkpt>
      <trkpt lat="49.06261" lon="1.86903">
        <ele>113</ele>
        <time>2023-01-08T20:05:41Z</time>
      </trkpt>
      <trkpt lat="49.06277" lon="1.86902">
        <ele>113</ele>
        <time>2023-01-08T20:06:02Z</time>
      </trkpt>
      <trkpt lat="49.06296" lon="1.86908">
        <ele>113</ele>
        <time>2023-01-08T20:06:28Z</time>
      </trkpt>
      <trkpt lat="49.0631" lon="1.86905">
        <ele>114</ele>
        <time>2023-01-08T20:06:47Z</time>
      </trkpt>
      <trkpt lat="49.06323" lon="1.86901">
        <ele>114</ele>
        <time>2023-01-08T20:07:05Z</time>
      </trkpt>
      <trkpt lat="49.06372" lon="1.86866">
        <ele>116</ele>
        <time>2023-01-08T20:08:17Z</time>
      </trkpt>
      <trkpt lat="49.064" lon="1.86856">
        <ele>116</ele>
        <time>2023-01-08T20:08:55Z</time>
      </trkpt>
      <trkpt lat="49.06452" lon="1.86847">
        <ele>116</ele>
        <time>2023-01-08T20:10:05Z</time>
      </trkpt>
      <trkpt lat="49.0646" lon="1.86837">
        <ele>116</ele>
        <time>2023-01-08T20:10:19Z</time>
      </trkpt>
      <trkpt lat="49.06472" lon="1.86797">
        <ele>117</ele>
        <time>2023-01-08T20:10:58Z</time>
      </trkpt>
      <trkpt lat="49.0649" lon="1.86756">
        <ele>118</ele>
        <time>2023-01-08T20:11:41Z</time>
      </trkpt>
      <trkpt lat="49.06511" lon="1.86721">
        <ele>119</ele>
        <time>2023-01-08T20:12:22Z</time>
      </trkpt>
      <trkpt lat="49.06542" lon="1.86706">
        <ele>121</ele>
        <time>2023-01-08T20:13:06Z</time>
      </trkpt>
      <trkpt lat="49.06579" lon="1.86727">
        <ele>122</ele>
        <time>2023-01-08T20:13:58Z</time>
      </trkpt>
      <trkpt lat="49.06589" lon="1.86728">
        <ele>123</ele>
        <time>2023-01-08T20:14:12Z</time>
      </trkpt>
      <trkpt lat="49.06635" lon="1.86676">
        <ele>129</ele>
        <time>2023-01-08T20:15:28Z</time>
      </trkpt>
      <trkpt lat="49.06684" lon="1.86635">
        <ele>136</ele>
        <time>2023-01-08T20:16:43Z</time>
      </trkpt>
      <trkpt lat="49.06695" lon="1.86609">
        <ele>139</ele>
        <time>2023-01-08T20:17:10Z</time>
      </trkpt>
      <trkpt lat="49.06732" lon="1.86608">
        <ele>144</ele>
        <time>2023-01-08T20:17:59Z</time>
      </trkpt>
      <trkpt lat="49.06773" lon="1.86621">
        <ele>147</ele>
        <time>2023-01-08T20:18:55Z</time>
      </trkpt>
      <trkpt lat="49.06796" lon="1.86645">
        <ele>146</ele>
        <time>2023-01-08T20:19:32Z</time>
      </trkpt>
      <trkpt lat="49.06813" lon="1.86656">
        <ele>146</ele>
        <time>2023-01-08T20:19:57Z</time>
      </trkpt>
      <trkpt lat="49.06823" lon="1.86671">
        <ele>145</ele>
        <time>2023-01-08T20:20:15Z</time>
      </trkpt>
      <trkpt lat="49.06841" lon="1.86685">
        <ele>145</ele>
        <time>2023-01-08T20:20:42Z</time>
      </trkpt>
      <trkpt lat="49.06853" lon="1.86703">
        <ele>145</ele>
        <time>2023-01-08T20:21:05Z</time>
      </trkpt>
      <trkpt lat="49.06906" lon="1.86757">
        <ele>146</ele>
        <time>2023-01-08T20:22:30Z</time>
      </trkpt>
      <trkpt lat="49.06971" lon="1.86835">
        <ele>145</ele>
        <time>2023-01-08T20:24:20Z</time>
      </trkpt>
      <trkpt lat="49.06987" lon="1.86861">
        <ele>145</ele>
        <time>2023-01-08T20:24:51Z</time>
      </trkpt>
      <trkpt lat="49.0702" lon="1.86933">
        <ele>142</ele>
        <time>2023-01-08T20:26:08Z</time>
      </trkpt>
      <trkpt lat="49.07041" lon="1.87012">
        <ele>139</ele>
        <time>2023-01-08T20:27:23Z</time>
      </trkpt>
      <trkpt lat="49.07048" lon="1.87023">
        <ele>138</ele>
        <time>2023-01-08T20:27:36Z</time>
      </trkpt>
      <trkpt lat="49.07013" lon="1.86927">
        <ele>143</ele>
        <time>2023-01-08T20:29:12Z</time>
      </trkpt>
      <trkpt lat="49.07006" lon="1.86899">
        <ele>144</ele>
        <time>2023-01-08T20:29:38Z</time>
      </trkpt>
      <trkpt lat="49.07004" lon="1.86863">
        <ele>144</ele>
        <time>2023-01-08T20:30:10Z</time>
      </trkpt>
      <trkpt lat="49.06984" lon="1.86832">
        <ele>145</ele>
        <time>2023-01-08T20:30:48Z</time>
      </trkpt>
      <trkpt lat="49.06965" lon="1.86811">
        <ele>145</ele>
        <time>2023-01-08T20:31:19Z</time>
      </trkpt>
      <trkpt lat="49.06953" lon="1.86779">
        <ele>146</ele>
        <time>2023-01-08T20:31:52Z</time>
      </trkpt>
      <trkpt lat="49.06946" lon="1.86743">
        <ele>146</ele>
        <time>2023-01-08T20:32:24Z</time>
      </trkpt>
      <trkpt lat="49.06946" lon="1.86716">
        <ele>147</ele>
        <time>2023-01-08T20:32:48Z</time>
      </trkpt>
      <trkpt lat="49.06941" lon="1.86702">
        <ele>147</ele>
        <time>2023-01-08T20:33:02Z</time>
      </trkpt>
      <trkpt lat="49.0694" lon="1.86655">
        <ele>148</ele>
        <time>2023-01-08T20:33:43Z</time>
      </trkpt>
      <trkpt lat="49.06943" lon="1.8664">
        <ele>149</ele>
        <time>2023-01-08T20:33:57Z</time>
      </trkpt>
      <trkpt lat="49.0696" lon="1.86617">
        <ele>150</ele>
        <time>2023-01-08T20:34:27Z</time>
      </trkpt>
      <trkpt lat="49.06987" lon="1.86552">
        <ele>154</ele>
        <time>2023-01-08T20:35:34Z</time>
      </trkpt>
      <trkpt lat="49.07008" lon="1.86518">
        <ele>155</ele>
        <time>2023-01-08T20:36:15Z</time>
      </trkpt>
      <trkpt lat="49.07014" lon="1.86496">
        <ele>156</ele>
        <time>2023-01-08T20:36:36Z</time>
      </trkpt>
      <trkpt lat="49.07046" lon="1.86467">
        <ele>156</ele>
        <time>2023-01-08T20:37:26Z</time>
      </trkpt>
      <trkpt lat="49.07057" lon="1.86433">
        <ele>158</ele>
        <time>2023-01-08T20:37:59Z</time>
      </trkpt>
      <trkpt lat="49.07071" lon="1.86407">
        <ele>159</ele>
        <time>2023-01-08T20:38:28Z</time>
      </trkpt>
      <trkpt lat="49.07082" lon="1.86395">
        <ele>159</ele>
        <time>2023-01-08T20:38:46Z</time>
      </trkpt>
      <trkpt lat="49.07098" lon="1.86353">
        <ele>157</ele>
        <time>2023-01-08T20:39:29Z</time>
      </trkpt>
      <trkpt lat="49.07087" lon="1.86278">
        <ele>155</ele>
        <time>2023-01-08T20:40:36Z</time>
      </trkpt>
      <trkpt lat="49.07085" lon="1.86238">
        <ele>152</ele>
        <time>2023-01-08T20:41:11Z</time>
      </trkpt>
      <trkpt lat="49.07076" lon="1.86218">
        <ele>152</ele>
        <time>2023-01-08T20:41:32Z</time>
      </trkpt>
      <trkpt lat="49.07073" lon="1.862">
        <ele>151</ele>
        <time>2023-01-08T20:41:49Z</time>
      </trkpt>
      <trkpt lat="49.07059" lon="1.86179">
        <ele>152</ele>
        <time>2023-01-08T20:42:15Z</time>
      </trkpt>
      <trkpt lat="49.07055" lon="1.86154">
        <ele>151</ele>
        <time>2023-01-08T20:42:37Z</time>
      </trkpt>
      <trkpt lat="49.07049" lon="1.86144">
        <ele>152</ele>
        <time>2023-01-08T20:42:49Z</time>
      </trkpt>
      <trkpt lat="49.07029" lon="1.86127">
        <ele>154</ele>
        <time>2023-01-08T20:43:20Z</time>
      </trkpt>
      <trkpt lat="49.07026" lon="1.86119">
        <ele>154</ele>
        <time>2023-01-08T20:43:28Z</time>
      </trkpt>
      <trkpt lat="49.07024" lon="1.86081">
        <ele>152</ele>
        <time>2023-01-08T20:44:01Z</time>
      </trkpt>
      <trkpt lat="49.07004" lon="1.8603">
        <ele>155</ele>
        <time>2023-01-08T20:44:53Z</time>
      </trkpt>
      <trkpt lat="49.0699" lon="1.85978">
        <ele>156</ele>
        <time>2023-01-08T20:45:42Z</time>
      </trkpt>
      <trkpt lat="49.06991" lon="1.85965">
        <ele>155</ele>
        <time>2023-01-08T20:45:54Z</time>
      </trkpt>
      <trkpt lat="49.07008" lon="1.85933">
        <ele>152</ele>
        <time>2023-01-08T20:46:30Z</time>
      </trkpt>
      <trkpt lat="49.07011" lon="1.85903">
        <ele>152</ele>
        <time>2023-01-08T20:46:56Z</time>
      </trkpt>
      <trkpt lat="49.07021" lon="1.85874">
        <ele>151</ele>
        <time>2023-01-08T20:47:25Z</time>
      </trkpt>
      <trkpt lat="49.07027" lon="1.85836">
        <ele>150</ele>
        <time>2023-01-08T20:47:59Z</time>
      </trkpt>
      <trkpt lat="49.07058" lon="1.85758">
        <ele>147</ele>
        <time>2023-01-08T20:49:19Z</time>
      </trkpt>
      <trkpt lat="49.07063" lon="1.8573">
        <ele>147</ele>
        <time>2023-01-08T20:49:44Z</time>
      </trkpt>
      <trkpt lat="49.07095" lon="1.85653">
        <ele>142</ele>
        <time>2023-01-08T20:51:04Z</time>
      </trkpt>
      <trkpt lat="49.07102" lon="1.85617">
        <ele>142</ele>
        <time>2023-01-08T20:51:37Z</time>
      </trkpt>
      <trkpt lat="49.07121" lon="1.85578">
        <ele>141</ele>
        <time>2023-01-08T20:52:19Z</time>
      </trkpt>
      <trkpt lat="49.07131" lon="1.85521">
        <ele>143</ele>
        <time>2023-01-08T20:53:11Z</time>
      </trkpt>
      <trkpt lat="49.07158" lon="1.85464">
        <ele>143</ele>
        <time>2023-01-08T20:54:12Z</time>
      </trkpt>
      <trkpt lat="49.07158" lon="1.8544">
        <ele>145</ele>
        <time>2023-01-08T20:54:33Z</time>
      </trkpt>
      <trkpt lat="49.07167" lon="1.85424">
        <ele>145</ele>
        <time>2023-01-08T20:54:52Z</time>
      </trkpt>
      <trkpt lat="49.07171" lon="1.85388">
        <ele>145</ele>
        <time>2023-01-08T20:55:24Z</time>
      </trkpt>
      <trkpt lat="49.07199" lon="1.85334">
        <ele>145</ele>
        <time>2023-01-08T20:56:24Z</time>
      </trkpt>
      <trkpt lat="49.07217" lon="1.8528">
        <ele>143</ele>
        <time>2023-01-08T20:57:17Z</time>
      </trkpt>
      <trkpt lat="49.07232" lon="1.85259">
        <ele>141</ele>
        <time>2023-01-08T20:57:44Z</time>
      </trkpt>
      <trkpt lat="49.07241" lon="1.8521">
        <ele>139</ele>
        <time>2023-01-08T20:58:28Z</time>
      </trkpt>
      <trkpt lat="49.07252" lon="1.85187">
        <ele>138</ele>
        <time>2023-01-08T20:58:53Z</time>
      </trkpt>
      <trkpt lat="49.07259" lon="1.85135">
        <ele>138</ele>
        <time>2023-01-08T20:59:40Z</time>
      </trkpt>
      <trkpt lat="49.07274" lon="1.85116">
        <ele>138</ele>
        <time>2023-01-08T21:00:06Z</time>
      </trkpt>
      <trkpt lat="49.0728" lon="1.85101">
        <ele>138</ele>
        <time>2023-01-08T21:00:21Z</time>
      </trkpt>
      <trkpt lat="49.07273" lon="1.8507">
        <ele>139</ele>
        <time>2023-01-08T21:00:50Z</time>
      </trkpt>
      <trkpt lat="49.07275" lon="1.85059">
        <ele>140</ele>
        <time>2023-01-08T21:01:00Z</time>
      </trkpt>
      <trkpt lat="49.07294" lon="1.85019">
        <ele>140</ele>
        <time>2023-01-08T21:01:43Z</time>
      </trkpt>
      <trkpt lat="49.07318" lon="1.85018">
        <ele>139</ele>
        <time>2023-01-08T21:02:15Z</time>
      </trkpt>
      <trkpt lat="49.07301" lon="1.85026">
        <ele>139</ele>
        <time>2023-01-08T21:02:39Z</time>
      </trkpt>
      <trkpt lat="49.0731" lon="1.85018">
        <ele>139</ele>
        <time>2023-01-08T21:02:53Z</time>
      </trkpt>
      <trkpt lat="49.07323" lon="1.84914">
        <ele>140</ele>
        <time>2023-01-08T21:04:25Z</time>
      </trkpt>
      <trkpt lat="49.07337" lon="1.84878">
        <ele>138</ele>
        <time>2023-01-08T21:05:02Z</time>
      </trkpt>
      <trkpt lat="49.07352" lon="1.84863">
        <ele>138</ele>
        <time>2023-01-08T21:05:26Z</time>
      </trkpt>
      <trkpt lat="49.07354" lon="1.84855">
        <ele>138</ele>
        <time>2023-01-08T21:05:33Z</time>
      </trkpt>
      <trkpt lat="49.07326" lon="1.84828">
        <ele>139</ele>
        <time>2023-01-08T21:06:17Z</time>
      </trkpt>
      <trkpt lat="49.07332" lon="1.84837">
        <ele>138</ele>
        <time>2023-01-08T21:06:29Z</time>
      </trkpt>
      <trkpt lat="49.07336" lon="1.84836">
        <ele>138</ele>
        <time>2023-01-08T21:06:34Z</time>
      </trkpt>
      <trkpt lat="49.07332" lon="1.84835">
        <ele>138</ele>
        <time>2023-01-08T21:06:39Z</time>
      </trkpt>
      <trkpt lat="49.07319" lon="1.84844">
        <ele>140</ele>
        <time>2023-01-08T21:06:58Z</time>
      </trkpt>
      <trkpt lat="49.07329" lon="1.84835">
        <ele>139</ele>
        <time>2023-01-08T21:07:14Z</time>
      </trkpt>
      <trkpt lat="49.07327" lon="1.84826">
        <ele>139</ele>
        <time>2023-01-08T21:07:22Z</time>
      </trkpt>
      <trkpt lat="49.07322" lon="1.84828">
        <ele>140</ele>
        <time>2023-01-08T21:07:29Z</time>
      </trkpt>
      <trkpt lat="49.07317" lon="1.84822">
        <ele>140</ele>
        <time>2023-01-08T21:07:38Z</time>
      </trkpt>
      <trkpt lat="49.07295" lon="1.84768">
        <ele>144</ele>
        <time>2023-01-08T21:08:33Z</time>
      </trkpt>
      <trkpt lat="49.07272" lon="1.84748">
        <ele>146</ele>
        <time>2023-01-08T21:09:09Z</time>
      </trkpt>
      <trkpt lat="49.07239" lon="1.84731">
        <ele>150</ele>
        <time>2023-01-08T21:09:55Z</time>
      </trkpt>
      <trkpt lat="49.07205" lon="1.84706">
        <ele>155</ele>
        <time>2023-01-08T21:10:45Z</time>
      </trkpt>
      <trkpt lat="49.07177" lon="1.84693">
        <ele>159</ele>
        <time>2023-01-08T21:11:24Z</time>
      </trkpt>
      <trkpt lat="49.07159" lon="1.84676">
        <ele>161</ele>
        <time>2023-01-08T21:11:53Z</time>
      </trkpt>
      <trkpt lat="49.07138" lon="1.8467">
        <ele>163</ele>
        <time>2023-01-08T21:12:21Z</time>
      </trkpt>
      <trkpt lat="49.07074" lon="1.84634">
        <ele>171</ele>
        <time>2023-01-08T21:13:52Z</time>
      </trkpt>
      <trkpt lat="49.07055" lon="1.84614">
        <ele>174</ele>
        <time>2023-01-08T21:14:23Z</time>
      </trkpt>
      <trkpt lat="49.07038" lon="1.84606">
        <ele>177</ele>
        <time>2023-01-08T21:14:47Z</time>
      </trkpt>
      <trkpt lat="49.07036" lon="1.846">
        <ele>178</ele>
        <time>2023-01-08T21:14:53Z</time>
      </trkpt>
      <trkpt lat="49.07033" lon="1.84602">
        <ele>178</ele>
        <time>2023-01-08T21:14:57Z</time>
      </trkpt>
      <trkpt lat="49.07041" lon="1.8454">
        <ele>175</ele>
        <time>2023-01-08T21:15:52Z</time>
      </trkpt>
      <trkpt lat="49.07055" lon="1.84504">
        <ele>172</ele>
        <time>2023-01-08T21:16:29Z</time>
      </trkpt>
      <trkpt lat="49.07038" lon="1.8446">
        <ele>174</ele>
        <time>2023-01-08T21:17:13Z</time>
      </trkpt>
      <trkpt lat="49.07024" lon="1.84443">
        <ele>175</ele>
        <time>2023-01-08T21:17:37Z</time>
      </trkpt>
      <trkpt lat="49.07012" lon="1.84436">
        <ele>176</ele>
        <time>2023-01-08T21:17:54Z</time>
      </trkpt>
      <trkpt lat="49.06926" lon="1.84404">
        <ele>187</ele>
        <time>2023-01-08T21:19:53Z</time>
      </trkpt>
      <trkpt lat="49.06897" lon="1.84381">
        <ele>186</ele>
        <time>2023-01-08T21:20:36Z</time>
      </trkpt>
      <trkpt lat="49.06894" lon="1.84354">
        <ele>184</ele>
        <time>2023-01-08T21:21:00Z</time>
      </trkpt>
      <trkpt lat="49.06907" lon="1.84322">
        <ele>185</ele>
        <time>2023-01-08T21:21:33Z</time>
      </trkpt>
      <trkpt lat="49.06902" lon="1.84291">
        <ele>184</ele>
        <time>2023-01-08T21:22:01Z</time>
      </trkpt>
      <trkpt lat="49.06905" lon="1.84152">
        <ele>184</ele>
        <time>2023-01-08T21:24:03Z</time>
      </trkpt>
      <trkpt lat="49.069" lon="1.84173">
        <ele>183</ele>
        <time>2023-01-08T21:24:22Z</time>
      </trkpt>
      <trkpt lat="49.06851" lon="1.84202">
        <ele>177</ele>
        <time>2023-01-08T21:25:32Z</time>
      </trkpt>
      <trkpt lat="49.06828" lon="1.84205">
        <ele>174</ele>
        <time>2023-01-08T21:26:03Z</time>
      </trkpt>
      <trkpt lat="49.0681" lon="1.84213">
        <ele>172</ele>
        <time>2023-01-08T21:26:28Z</time>
      </trkpt>
      <trkpt lat="49.06789" lon="1.84212">
        <ele>169</ele>
        <time>2023-01-08T21:26:56Z</time>
      </trkpt>
      <trkpt lat="49.06763" lon="1.84204">
        <ele>165</ele>
        <time>2023-01-08T21:27:32Z</time>
      </trkpt>
      <trkpt lat="49.06747" lon="1.84211">
        <ele>163</ele>
        <time>2023-01-08T21:27:54Z</time>
      </trkpt>
      <trkpt lat="49.06713" lon="1.84242">
        <ele>162</ele>
        <time>2023-01-08T21:28:47Z</time>
      </trkpt>
      <trkpt lat="49.06692" lon="1.84249">
        <ele>161</ele>
        <time>2023-01-08T21:29:15Z</time>
      </trkpt>
      <trkpt lat="49.0665" lon="1.84259">
        <ele>160</ele>
        <time>2023-01-08T21:30:12Z</time>
      </trkpt>
      <trkpt lat="49.06635" lon="1.84257">
        <ele>159</ele>
        <time>2023-01-08T21:30:32Z</time>
      </trkpt>
      <trkpt lat="49.06619" lon="1.84268">
        <ele>160</ele>
        <time>2023-01-08T21:30:55Z</time>
      </trkpt>
      <trkpt lat="49.06578" lon="1.84265">
        <ele>160</ele>
        <time>2023-01-08T21:31:50Z</time>
      </trkpt>
      <trkpt lat="49.0656" lon="1.84279">
        <ele>161</ele>
        <time>2023-01-08T21:32:17Z</time>
      </trkpt>
      <trkpt lat="49.0655" lon="1.84279">
        <ele>161</ele>
        <time>2023-01-08T21:32:31Z</time>
      </trkpt>
      <trkpt lat="49.06527" lon="1.84294">
        <ele>163</ele>
        <time>2023-01-08T21:33:04Z</time>
      </trkpt>
      <trkpt lat="49.06508" lon="1.843">
        <ele>163</ele>
        <time>2023-01-08T21:33:30Z</time>
      </trkpt>
      <trkpt lat="49.06459" lon="1.84298">
        <ele>162</ele>
        <time>2023-01-08T21:34:35Z</time>
      </trkpt>
      <trkpt lat="49.06433" lon="1.84308">
        <ele>162</ele>
        <time>2023-01-08T21:35:11Z</time>
      </trkpt>
      <trkpt lat="49.06404" lon="1.84328">
        <ele>162</ele>
        <time>2023-01-08T21:35:54Z</time>
      </trkpt>
      <trkpt lat="49.06372" lon="1.84366">
        <ele>162</ele>
        <time>2023-01-08T21:36:48Z</time>
      </trkpt>
      <trkpt lat="49.06351" lon="1.84381">
        <ele>161</ele>
        <time>2023-01-08T21:37:19Z</time>
      </trkpt>
      <trkpt lat="49.06341" lon="1.844">
        <ele>161</ele>
        <time>2023-01-08T21:37:40Z</time>
      </trkpt>
      <trkpt lat="49.06317" lon="1.84422">
        <ele>162</ele>
        <time>2023-01-08T21:38:17Z</time>
      </trkpt>
      <trkpt lat="49.06313" lon="1.84434">
        <ele>163</ele>
        <time>2023-01-08T21:38:29Z</time>
      </trkpt>
      <trkpt lat="49.06294" lon="1.84441">
        <ele>163</ele>
        <time>2023-01-08T21:38:55Z</time>
      </trkpt>
      <trkpt lat="49.06281" lon="1.84454">
        <ele>163</ele>
        <time>2023-01-08T21:39:16Z</time>
      </trkpt>
      <trkpt lat="49.0623" lon="1.84474">
        <ele>163</ele>
        <time>2023-01-08T21:40:26Z</time>
      </trkpt>
      <trkpt lat="49.06207" lon="1.84491">
        <ele>165</ele>
        <time>2023-01-08T21:41:00Z</time>
      </trkpt>
      <trkpt lat="49.06194" lon="1.84515">
        <ele>165</ele>
        <time>2023-01-08T21:41:27Z</time>
      </trkpt>
      <trkpt lat="49.06205" lon="1.84506">
        <ele>165</ele>
        <time>2023-01-08T21:41:44Z</time>
      </trkpt>
      <trkpt lat="49.06198" lon="1.84495">
        <ele>166</ele>
        <time>2023-01-08T21:41:57Z</time>
      </trkpt>
      <trkpt lat="49.0619" lon="1.84504">
        <ele>166</ele>
        <time>2023-01-08T21:42:11Z</time>
      </trkpt>
      <trkpt lat="49.06192" lon="1.84492">
        <ele>166</ele>
        <time>2023-01-08T21:42:22Z</time>
      </trkpt>
      <trkpt lat="49.06196" lon="1.84444">
        <ele>168</ele>
        <time>2023-01-08T21:43:04Z</time>
      </trkpt>
      <trkpt lat="49.06198" lon="1.84375">
        <ele>168</ele>
        <time>2023-01-08T21:44:04Z</time>
      </trkpt>
      <trkpt lat="49.0619" lon="1.84286">
        <ele>166</ele>
        <time>2023-01-08T21:45:23Z</time>
      </trkpt>
      <trkpt lat="49.06213" lon="1.84214">
        <ele>162</ele>
        <time>2023-01-08T21:46:33Z</time>
      </trkpt>
      <trkpt lat="49.06228" lon="1.8414">
        <ele>159</ele>
        <time>2023-01-08T21:47:41Z</time>
      </trkpt>
      <trkpt lat="49.06223" lon="1.84015">
        <ele>152</ele>
        <time>2023-01-08T21:49:30Z</time>
      </trkpt>
      <trkpt lat="49.06213" lon="1.83888">
        <ele>143</ele>
        <time>2023-01-08T21:51:22Z</time>
      </trkpt>
      <trkpt lat="49.06195" lon="1.83796">
        <ele>132</ele>
        <time>2023-01-08T21:52:46Z</time>
      </trkpt>
      <trkpt lat="49.06178" lon="1.8376">
        <ele>126</ele>
        <time>2023-01-08T21:53:25Z</time>
      </trkpt>
      <trkpt lat="49.06161" lon="1.83674">
        <ele>122</ele>
        <time>2023-01-08T21:54:43Z</time>
      </trkpt>
      <trkpt lat="49.06156" lon="1.83523">
        <ele>119</ele>
        <time>2023-01-08T21:56:55Z</time>
      </trkpt>
      <trkpt lat="49.06139" lon="1.83332">
        <ele>117</ele>
        <time>2023-01-08T21:59:44Z</time>
      </trkpt>
      <trkpt lat="49.06133" lon="1.83133">
        <ele>114</ele>
        <time>2023-01-08T22:02:38Z</time>
      </trkpt>
      <trkpt lat="49.06121" lon="1.83013">
        <ele>108</ele>
        <time>2023-01-08T22:04:24Z</time>
      </trkpt>
      <trkpt lat="49.06101" lon="1.82893">
        <ele>108</ele>
        <time>2023-01-08T22:06:13Z</time>
      </trkpt>
      <trkpt lat="49.06093" lon="1.82752">
        <ele>111</ele>
        <time>2023-01-08T22:08:16Z</time>
      </trkpt>
      <trkpt lat="49.06093" lon="1.82594">
        <ele>115</ele>
        <time>2023-01-08T22:10:35Z</time>
      </trkpt>
      <trkpt lat="49.06098" lon="1.82433">
        <ele>119</ele>
        <time>2023-01-08T22:12:55Z</time>
      </trkpt>
      <trkpt lat="49.06104" lon="1.82352">
        <ele>120</ele>
        <time>2023-01-08T22:14:07Z</time>
      </trkpt>
      <trkpt lat="49.06113" lon="1.82265">
        <ele>121</ele>
        <time>2023-01-08T22:15:24Z</time>
      </trkpt>
      <trkpt lat="49.06113" lon="1.82178">
        <ele>125</ele>
        <time>2023-01-08T22:16:40Z</time>
      </trkpt>
      <trkpt lat="49.06111" lon="1.82099">
        <ele>130</ele>
        <time>2023-01-08T22:17:49Z</time>
      </trkpt>
      <trkpt lat="49.06106" lon="1.82053">
        <ele>132</ele>
        <time>2023-01-08T22:18:30Z</time>
      </trkpt>
      <trkpt lat="49.06101" lon="1.81994">
        <ele>136</ele>
        <time>2023-01-08T22:19:22Z</time>
      </trkpt>
      <trkpt lat="49.06096" lon="1.81922">
        <ele>138</ele>
        <time>2023-01-08T22:20:25Z</time>
      </trkpt>
      <trkpt lat="49.06081" lon="1.81898">
        <ele>140</ele>
        <time>2023-01-08T22:20:54Z</time>
      </trkpt>
      <trkpt lat="49.06025" lon="1.81868">
        <ele>143</ele>
        <time>2023-01-08T22:22:13Z</time>
      </trkpt>
      <trkpt lat="49.05948" lon="1.81827">
        <ele>145</ele>
        <time>2023-01-08T22:24:02Z</time>
      </trkpt>
      <trkpt lat="49.05944" lon="1.81819">
        <ele>145</ele>
        <time>2023-01-08T22:24:11Z</time>
      </trkpt>
      <trkpt lat="49.05944" lon="1.81788">
        <ele>147</ele>
        <time>2023-01-08T22:24:38Z</time>
      </trkpt>
      <trkpt lat="49.05933" lon="1.81676">
        <ele>151</ele>
        <time>2023-01-08T22:26:17Z</time>
      </trkpt>
      <trkpt lat="49.0593" lon="1.81646">
        <ele>150</ele>
        <time>2023-01-08T22:26:44Z</time>
      </trkpt>
      <trkpt lat="49.05943" lon="1.81579">
        <ele>149</ele>
        <time>2023-01-08T22:27:45Z</time>
      </trkpt>
      <trkpt lat="49.05934" lon="1.81545">
        <ele>147</ele>
        <time>2023-01-08T22:28:17Z</time>
      </trkpt>
      <trkpt lat="49.05919" lon="1.81499">
        <ele>144</ele>
        <time>2023-01-08T22:29:02Z</time>
      </trkpt>
      <trkpt lat="49.05911" lon="1.81416">
        <ele>139</ele>
        <time>2023-01-08T22:30:15Z</time>
      </trkpt>
      <trkpt lat="49.05891" lon="1.81342">
        <ele>135</ele>
        <time>2023-01-08T22:31:25Z</time>
      </trkpt>
      <trkpt lat="49.05859" lon="1.81265">
        <ele>129</ele>
        <time>2023-01-08T22:32:45Z</time>
      </trkpt>
      <trkpt lat="49.05818" lon="1.81207">
        <ele>125</ele>
        <time>2023-01-08T22:33:59Z</time>
      </trkpt>
      <trkpt lat="49.05765" lon="1.81142">
        <ele>121</ele>
        <time>2023-01-08T22:35:30Z</time>
      </trkpt>
      <trkpt lat="49.05709" lon="1.811">
        <ele>120</ele>
        <time>2023-01-08T22:36:53Z</time>
      </trkpt>
      <trkpt lat="49.05648" lon="1.81029">
        <ele>127</ele>
        <time>2023-01-08T22:38:36Z</time>
      </trkpt>
      <trkpt lat="49.05606" lon="1.80964">
        <ele>137</ele>
        <time>2023-01-08T22:39:56Z</time>
      </trkpt>
      <trkpt lat="49.05568" lon="1.80926">
        <ele>142</ele>
        <time>2023-01-08T22:40:56Z</time>
      </trkpt>
      <trkpt lat="49.05522" lon="1.80836">
        <ele>148</ele>
        <time>2023-01-08T22:42:36Z</time>
      </trkpt>
      <trkpt lat="49.05475" lon="1.8075">
        <ele>153</ele>
        <time>2023-01-08T22:44:14Z</time>
      </trkpt>
      <trkpt lat="49.05447" lon="1.80711">
        <ele>154</ele>
        <time>2023-01-08T22:45:05Z</time>
      </trkpt>
      <trkpt lat="49.05423" lon="1.80658">
        <ele>156</ele>
        <time>2023-01-08T22:46:01Z</time>
      </trkpt>
      <trkpt lat="49.05403" lon="1.80587">
        <ele>156</ele>
        <time>2023-01-08T22:47:08Z</time>
      </trkpt>
      <trkpt lat="49.05387" lon="1.80544">
        <ele>156</ele>
        <time>2023-01-08T22:47:52Z</time>
      </trkpt>
      <trkpt lat="49.05323" lon="1.80467">
        <ele>155</ele>
        <time>2023-01-08T22:49:40Z</time>
      </trkpt>
      <trkpt lat="49.05267" lon="1.80426">
        <ele>156</ele>
        <time>2023-01-08T22:51:03Z</time>
      </trkpt>
      <trkpt lat="49.05219" lon="1.80391">
        <ele>155</ele>
        <time>2023-01-08T22:52:14Z</time>
      </trkpt>
      <trkpt lat="49.0516" lon="1.80441">
        <ele>159</ele>
        <time>2023-01-08T22:53:44Z</time>
      </trkpt>
      <trkpt lat="49.05129" lon="1.80482">
        <ele>159</ele>
        <time>2023-01-08T22:54:39Z</time>
      </trkpt>
      <trkpt lat="49.05088" lon="1.80544">
        <ele>160</ele>
        <time>2023-01-08T22:55:56Z</time>
      </trkpt>
      <trkpt lat="49.05049" lon="1.80612">
        <ele>162</ele>
        <time>2023-01-08T22:57:15Z</time>
      </trkpt>
      <trkpt lat="49.0499" lon="1.80664">
        <ele>165</ele>
        <time>2023-01-08T22:58:46Z</time>
      </trkpt>
      <trkpt lat="49.04945" lon="1.80688">
        <ele>167</ele>
        <time>2023-01-08T22:59:50Z</time>
      </trkpt>
      <trkpt lat="49.04894" lon="1.80722">
        <ele>170</ele>
        <time>2023-01-08T23:01:04Z</time>
      </trkpt>
      <trkpt lat="49.04842" lon="1.80791">
        <ele>174</ele>
        <time>2023-01-08T23:02:36Z</time>
      </trkpt>
      <trkpt lat="49.04802" lon="1.80861">
        <ele>171</ele>
        <time>2023-01-08T23:03:57Z</time>
      </trkpt>
      <trkpt lat="49.04762" lon="1.80919">
        <ele>168</ele>
        <time>2023-01-08T23:05:11Z</time>
      </trkpt>
      <trkpt lat="49.0474" lon="1.80975">
        <ele>164</ele>
        <time>2023-01-08T23:06:08Z</time>
      </trkpt>
      <trkpt lat="49.04699" lon="1.8102">
        <ele>160</ele>
        <time>2023-01-08T23:07:15Z</time>
      </trkpt>
      <trkpt lat="49.04675" lon="1.81082">
        <ele>156</ele>
        <time>2023-01-08T23:08:18Z</time>
      </trkpt>
      <trkpt lat="49.04661" lon="1.81149">
        <ele>154</ele>
        <time>2023-01-08T23:09:20Z</time>
      </trkpt>
      <trkpt lat="49.04623" lon="1.81205">
        <ele>151</ele>
        <time>2023-01-08T23:10:30Z</time>
      </trkpt>
      <trkpt lat="49.04614" lon="1.81213">
        <ele>151</ele>
        <time>2023-01-08T23:10:44Z</time>
      </trkpt>
      <trkpt lat="49.04579" lon="1.81196">
        <ele>150</ele>
        <time>2023-01-08T23:11:33Z</time>
      </trkpt>
      <trkpt lat="49.04543" lon="1.81196">
        <ele>147</ele>
        <time>2023-01-08T23:12:21Z</time>
      </trkpt>
      <trkpt lat="49.04465" lon="1.81256">
        <ele>144</ele>
        <time>2023-01-08T23:14:18Z</time>
      </trkpt>
      <trkpt lat="49.04391" lon="1.81383">
        <ele>143</ele>
        <time>2023-01-08T23:16:46Z</time>
      </trkpt>
      <trkpt lat="49.04288" lon="1.81484">
        <ele>143</ele>
        <time>2023-01-08T23:19:30Z</time>
      </trkpt>
      <trkpt lat="49.04239" lon="1.81537">
        <ele>146</ele>
        <time>2023-01-08T23:20:50Z</time>
      </trkpt>
      <trkpt lat="49.0417" lon="1.81623">
        <ele>146</ele>
        <time>2023-01-08T23:22:49Z</time>
      </trkpt>
      <trkpt lat="49.04155" lon="1.81718">
        <ele>137</ele>
        <time>2023-01-08T23:24:14Z</time>
      </trkpt>
      <trkpt lat="49.04164" lon="1.81866">
        <ele>124</ele>
        <time>2023-01-08T23:26:24Z</time>
      </trkpt>
      <trkpt lat="49.04143" lon="1.81981">
        <ele>117</ele>
        <time>2023-01-08T23:28:09Z</time>
      </trkpt>
      <trkpt lat="49.04084" lon="1.82187">
        <ele>109</ele>
        <time>2023-01-08T23:31:26Z</time>
      </trkpt>
      <trkpt lat="49.04025" lon="1.82136">
        <ele>110</ele>
        <time>2023-01-08T23:32:56Z</time>
      </trkpt>
      <trkpt lat="49.03953" lon="1.82091">
        <ele>114</ele>
        <time>2023-01-08T23:34:40Z</time>
      </trkpt>
      <trkpt lat="49.03892" lon="1.82042">
        <ele>119</ele>
        <time>2023-01-08T23:36:12Z</time>
      </trkpt>
      <trkpt lat="49.03809" lon="1.81979">
        <ele>125</ele>
        <time>2023-01-08T23:38:16Z</time>
      </trkpt>
      <trkpt lat="49.0374" lon="1.81951">
        <ele>126</ele>
        <time>2023-01-08T23:39:51Z</time>
      </trkpt>
      <trkpt lat="49.03726" lon="1.82076">
        <ele>123</ele>
        <time>2023-01-08T23:41:42Z</time>
      </trkpt>
      <trkpt lat="49.03693" lon="1.82209">
        <ele>122</ele>
        <time>2023-01-08T23:43:46Z</time>
      </trkpt>
      <trkpt lat="49.03631" lon="1.82432">
        <ele>120</ele>
        <time>2023-01-08T23:47:18Z</time>
      </trkpt>
      <trkpt lat="49.03571" lon="1.82625">
        <ele>116</ele>
        <time>2023-01-08T23:50:25Z</time>
      </trkpt>
      <trkpt lat="49.03536" lon="1.82758">
        <ele>114</ele>
        <time>2023-01-08T23:52:30Z</time>
      </trkpt>
      <trkpt lat="49.03506" lon="1.82859">
        <ele>114</ele>
        <time>2023-01-08T23:54:07Z</time>
      </trkpt>
      <trkpt lat="49.03468" lon="1.82986">
        <ele>113</ele>
        <time>2023-01-08T23:56:09Z</time>
      </trkpt>
      <trkpt lat="49.03444" lon="1.83093">
        <ele>113</ele>
        <time>2023-01-08T23:57:48Z</time>
      </trkpt>
      <trkpt lat="49.03398" lon="1.83275">
        <ele>112</ele>
        <time>2023-01-09T00:00:39Z</time>
      </trkpt>
      <trkpt lat="49.03368" lon="1.83479">
        <ele>109</ele>
        <time>2023-01-09T00:03:42Z</time>
      </trkpt>
      <trkpt lat="49.03385" lon="1.83713">
        <ele>108</ele>
        <time>2023-01-09T00:07:08Z</time>
      </trkpt>
      <trkpt lat="49.03379" lon="1.83805">
        <ele>107</ele>
        <time>2023-01-09T00:08:29Z</time>
      </trkpt>
      <trkpt lat="49.03364" lon="1.83977">
        <ele>107</ele>
        <time>2023-01-09T00:11:01Z</time>
      </trkpt>
      <trkpt lat="49.03395" lon="1.84082">
        <ele>104</ele>
        <time>2023-01-09T00:12:41Z</time>
      </trkpt>
      <trkpt lat="49.03406" lon="1.84132">
        <ele>101</ele>
        <time>2023-01-09T00:13:28Z</time>
      </trkpt>
      <trkpt lat="49.03389" lon="1.842">
        <ele>101</ele>
        <time>2023-01-09T00:14:31Z</time>
      </trkpt>
      <trkpt lat="49.0337" lon="1.84284">
        <ele>100</ele>
        <time>2023-01-09T00:15:49Z</time>
      </trkpt>
      <trkpt lat="49.03371" lon="1.84393">
        <ele>96</ele>
        <time>2023-01-09T00:17:24Z</time>
      </trkpt>
      <trkpt lat="49.03361" lon="1.84496">
        <ele>94</ele>
        <time>2023-01-09T00:18:55Z</time>
      </trkpt>
      <trkpt lat="49.03364" lon="1.84612">
        <ele>89</ele>
        <time>2023-01-09T00:20:37Z</time>
      </trkpt>
      <trkpt lat="49.03347" lon="1.84715">
        <ele>85</ele>
        <time>2023-01-09T00:22:10Z</time>
      </trkpt>
      <trkpt lat="49.03349" lon="1.84906">
        <ele>85</ele>
        <time>2023-01-09T00:24:57Z</time>
      </trkpt>
      <trkpt lat="49.03343" lon="1.85058">
        <ele>85</ele>
        <time>2023-01-09T00:27:10Z</time>
      </trkpt>
      <trkpt lat="49.03323" lon="1.85138">
        <ele>85</ele>
        <time>2023-01-09T00:28:25Z</time>
      </trkpt>
      <trkpt lat="49.03319" lon="1.85217">
        <ele>83</ele>
        <time>2023-01-09T00:29:35Z</time>
      </trkpt>
      <trkpt lat="49.03281" lon="1.85398">
        <ele>83</ele>
        <time>2023-01-09T00:32:21Z</time>
      </trkpt>
      <trkpt lat="49.03249" lon="1.85509">
        <ele>83</ele>
        <time>2023-01-09T00:34:07Z</time>
      </trkpt>
      <trkpt lat="49.03235" lon="1.85668">
        <ele>81</ele>
        <time>2023-01-09T00:36:27Z</time>
      </trkpt>
      <trkpt lat="49.03239" lon="1.85837">
        <ele>80</ele>
        <time>2023-01-09T00:38:55Z</time>
      </trkpt>
      <trkpt lat="49.03228" lon="1.86003">
        <ele>77</ele>
        <time>2023-01-09T00:41:21Z</time>
      </trkpt>
      <trkpt lat="49.03212" lon="1.86164">
        <ele>68</ele>
        <time>2023-01-09T00:43:44Z</time>
      </trkpt>
      <trkpt lat="49.03204" lon="1.86269">
        <ele>65</ele>
        <time>2023-01-09T00:45:16Z</time>
      </trkpt>
      <trkpt lat="49.03232" lon="1.8635">
        <ele>62</ele>
        <time>2023-01-09T00:46:36Z</time>
      </trkpt>
      <trkpt lat="49.03281" lon="1.8643">
        <ele>58</ele>
        <time>2023-01-09T00:48:12Z</time>
      </trkpt>
      <trkpt lat="49.03302" lon="1.86454">
        <ele>55</ele>
        <time>2023-01-09T00:48:47Z</time>
      </trkpt>
      <trkpt lat="49.03317" lon="1.86463">
        <ele>53</ele>
        <time>2023-01-09T00:49:09Z</time>
      </trkpt>
      <trkpt lat="49.03335" lon="1.86468">
        <ele>51</ele>
        <time>2023-01-09T00:49:33Z</time>
      </trkpt>
      <trkpt lat="49.03364" lon="1.86484">
        <ele>46</ele>
        <time>2023-01-09T00:50:14Z</time>
      </trkpt>
      <trkpt lat="49.0339" lon="1.86502">
        <ele>42</ele>
        <time>2023-01-09T00:50:52Z</time>
      </trkpt>
      <trkpt lat="49.03409" lon="1.86517">
        <ele>39</ele>
        <time>2023-01-09T00:51:21Z</time>
      </trkpt>
      <trkpt lat="49.03421" lon="1.86529">
        <ele>38</ele>
        <time>2023-01-09T00:51:40Z</time>
      </trkpt>
      <trkpt lat="49.03435" lon="1.86539">
        <ele>38</ele>
        <time>2023-01-09T00:52:01Z</time>
      </trkpt>
      <trkpt lat="49.03447" lon="1.86547">
        <ele>38</ele>
        <time>2023-01-09T00:52:18Z</time>
      </trkpt>
      <trkpt lat="49.03465" lon="1.86539">
        <ele>39</ele>
        <time>2023-01-09T00:52:43Z</time>
      </trkpt>
      <trkpt lat="49.03478" lon="1.86531">
        <ele>39</ele>
        <time>2023-01-09T00:53:02Z</time>
      </trkpt>
      <trkpt lat="49.03485" lon="1.86514">
        <ele>38</ele>
        <time>2023-01-09T00:53:19Z</time>
      </trkpt>
      <trkpt lat="49.03483" lon="1.86508">
        <ele>38</ele>
        <time>2023-01-09T00:53:25Z</time>
      </trkpt>
      <trkpt lat="49.03482" lon="1.86461">
        <ele>39</ele>
        <time>2023-01-09T00:54:06Z</time>
      </trkpt>
      <trkpt lat="49.03477" lon="1.86446">
        <ele>39</ele>
        <time>2023-01-09T00:54:21Z</time>
      </trkpt>
      <trkpt lat="49.03471" lon="1.86455">
        <ele>39</ele>
        <time>2023-01-09T00:54:32Z</time>
      </trkpt>
      <trkpt lat="49.03465" lon="1.86465">
        <ele>39</ele>
        <time>2023-01-09T00:54:44Z</time>
      </trkpt>
      <trkpt lat="49.03458" lon="1.86481">
        <ele>38</ele>
        <time>2023-01-09T00:55:01Z</time>
      </trkpt>
      <trkpt lat="49.03453" lon="1.86487">
        <ele>38</ele>
        <time>2023-01-09T00:55:09Z</time>
      </trkpt>
    </trkseg>
  </trk>
</gpx>